Time;durP1;ratioP1;P1;durP2;ratioP2;P2;SDS_P1;SDS_P2;PMS_P1;PMS_P2;Temp;Humidity;BMP_temperature;BMP_pressure;BME280_temperature;BME280_humidity;BME280_pressure;Samples;Min_cycle;Max_cycle;Signal;HPM_P1;HPM_P2
2023/06/30 00:00:32;;;;;;;12.45;8.65;;;;;;;19.96;99.27;100255.27;5164727;55;1140834;-72
2023/06/30 00:05:39;;;;;;;18.65;8.20;;;;;;;19.96;100.00;100251.25;5164658;55;1141313;-70
2023/06/30 00:10:44;;;;;;;17.73;8.90;;;;;;;19.89;99.87;100244.95;5125927;56;1143138;-75
2023/06/30 00:15:50;;;;;;;16.27;8.50;;;;;;;19.83;100.00;100247.55;5078637;56;1141083;-77
2023/06/30 00:20:57;;;;;;;14.23;9.07;;;;;;;19.86;100.00;100248.53;5078478;56;1143029;-76
2023/06/30 00:26:02;;;;;;;15.08;10.13;;;;;;;19.90;100.00;100244.44;5098565;57;1143318;-69
2023/06/30 00:31:08;;;;;;;16.45;8.75;;;;;;;19.93;100.00;100246.25;5078463;56;1145485;-73
2023/06/30 00:36:14;;;;;;;10.28;6.53;;;;;;;19.90;100.00;100239.91;5078281;56;1143045;-74
2023/06/30 00:41:21;;;;;;;5.92;5.33;;;;;;;19.88;100.00;100241.09;5083920;56;1143067;-70
2023/06/30 00:46:27;;;;;;;5.85;4.80;;;;;;;19.81;100.00;100232.97;5183992;55;1141006;-75
2023/06/30 00:51:34;;;;;;;4.08;3.40;;;;;;;19.74;100.00;100229.36;5164675;55;1141015;-70
2023/06/30 00:56:39;;;;;;;6.05;3.58;;;;;;;19.70;100.00;100224.56;5089243;55;1141044;-72
2023/06/30 01:02:16;;;;;;;3.90;3.22;;;;;;;19.68;100.00;100226.59;5099618;56;1140967;-71
2023/06/30 01:07:43;;;;;;;9.75;6.30;;;;;;;19.65;100.00;100219.23;5078450;56;1140757;-70
2023/06/30 01:12:51;;;;;;;3.85;3.50;;;;;;;19.60;100.00;100217.61;5078054;56;1140845;-73
2023/06/30 01:18:00;;;;;;;8.73;3.33;;;;;;;19.46;100.00;100210.35;5097868;56;1141123;-74
2023/06/30 01:23:19;;;;;;;8.73;3.72;;;;;;;19.17;100.00;100208.97;5078640;57;1140990;-73
2023/06/30 01:28:27;;;;;;;6.80;4.08;;;;;;;19.12;100.00;100205.48;4993390;57;1140950;-75
2023/06/30 01:33:34;;;;;;;14.93;9.00;;;;;;;19.20;100.00;100196.55;5077513;56;1141326;-75
2023/06/30 01:38:40;;;;;;;15.20;8.23;;;;;;;19.20;100.00;100195.21;5097624;56;1143078;-73
2023/06/30 01:43:46;;;;;;;5.65;4.62;;;;;;;19.17;100.00;100191.05;5079399;55;1142858;-70
2023/06/30 01:48:53;;;;;;;6.62;4.50;;;;;;;19.18;100.00;100188.69;5079870;55;1140995;-73
2023/06/30 01:53:59;;;;;;;4.72;4.20;;;;;;;19.18;100.00;100191.37;5129278;56;1140887;-74
2023/06/30 01:59:04;;;;;;;8.88;4.10;;;;;;;19.10;100.00;100194.62;5164635;55;1140967;-72
2023/06/30 02:04:11;;;;;;;13.13;3.83;;;;;;;19.00;100.00;100193.55;5165038;55;1140696;-79
2023/06/30 02:09:16;;;;;;;8.28;4.55;;;;;;;18.87;100.00;100191.98;5130942;55;1143529;-71
2023/06/30 02:14:23;;;;;;;12.55;3.45;;;;;;;18.83;100.00;100191.52;5099062;56;1140785;-72
2023/06/30 02:19:29;;;;;;;4.05;3.50;;;;;;;18.90;100.00;100197.83;5078835;56;1143261;-68
2023/06/30 02:24:34;;;;;;;5.83;3.50;;;;;;;18.94;100.00;100195.09;5095547;56;1140805;-70
2023/06/30 02:29:40;;;;;;;5.10;3.62;;;;;;;18.98;100.00;100196.41;5185442;55;1140706;-73
2023/06/30 02:34:46;;;;;;;11.80;3.85;;;;;;;18.88;100.00;100192.31;5171127;55;1141084;-76
2023/06/30 02:39:52;;;;;;;7.27;4.07;;;;;;;18.77;100.00;100190.08;5185459;55;1143100;-74
2023/06/30 02:44:59;;;;;;;10.20;6.93;;;;;;;18.81;100.00;100186.83;5205789;55;1140940;-74
2023/06/30 02:50:06;;;;;;;5.50;4.05;;;;;;;18.87;100.00;100175.41;5185238;55;1142927;-71
2023/06/30 02:55:13;;;;;;;8.53;4.55;;;;;;;18.93;100.00;100171.18;5140451;56;1140922;-72
2023/06/30 03:00:19;;;;;;;4.97;4.47;;;;;;;18.98;100.00;100170.11;5020739;57;1141077;-68
2023/06/30 03:05:25;;;;;;;6.08;4.12;;;;;;;18.94;100.00;100172.31;5105454;56;1140824;-73
2023/06/30 03:10:31;;;;;;;13.48;3.67;;;;;;;18.93;100.00;100167.99;5185750;55;1140844;-79
2023/06/30 03:15:36;;;;;;;3.98;3.50;;;;;;;18.89;100.00;100153.79;5152718;55;1142649;-76
2023/06/30 03:20:42;;;;;;;8.05;4.10;;;;;;;18.92;100.00;100164.98;5205918;55;1140611;-72
2023/06/30 03:25:48;;;;;;;6.53;4.33;;;;;;;19.00;100.00;100152.51;5147941;55;1140801;-70
2023/06/30 03:30:54;;;;;;;4.33;3.92;;;;;;;18.95;100.00;100158.41;5117259;56;1140744;-75
2023/06/30 03:36:01;;;;;;;6.12;4.60;;;;;;;18.95;100.00;100154.38;5202698;55;1140840;-74
2023/06/30 03:41:07;;;;;;;4.00;3.70;;;;;;;19.01;100.00;100154.17;5164780;55;1141048;-74
2023/06/30 03:46:15;;;;;;;9.23;4.90;;;;;;;19.02;100.00;100150.48;5164428;55;1141066;-71
2023/06/30 03:51:21;;;;;;;10.05;4.62;;;;;;;19.08;100.00;100142.55;5164730;55;1140929;-75
2023/06/30 03:56:28;;;;;;;6.97;4.08;;;;;;;19.08;100.00;100142.55;5173221;55;1143243;-74
2023/06/30 04:01:34;;;;;;;6.72;4.53;;;;;;;18.98;100.00;100152.18;5149748;55;1141119;-74
2023/06/30 04:06:39;;;;;;;8.63;4.75;;;;;;;18.93;100.00;100149.23;5124352;56;1141155;-74
2023/06/30 04:11:48;;;;;;;14.75;4.28;;;;;;;18.88;100.00;100147.59;5125349;55;1140987;-71
2023/06/30 04:16:53;;;;;;;5.80;4.72;;;;;;;18.87;100.00;100145.09;5089276;56;1143104;-74
2023/06/30 04:21:59;;;;;;;5.35;4.62;;;;;;;18.83;100.00;100150.48;5132648;55;1140848;-69
2023/06/30 04:27:05;;;;;;;8.53;4.70;;;;;;;18.75;100.00;100145.21;5124150;56;1140848;-73
2023/06/30 04:32:11;;;;;;;10.80;4.40;;;;;;;18.71;100.00;100144.73;5135560;55;1140943;-74
2023/06/30 04:37:16;;;;;;;6.53;4.03;;;;;;;18.78;100.00;100138.16;5162893;55;1142923;-74
2023/06/30 04:42:22;;;;;;;5.47;4.13;;;;;;;18.80;100.00;100144.14;5108716;55;1141357;-73
2023/06/30 04:47:28;;;;;;;11.03;5.78;;;;;;;18.87;100.00;100134.38;5054951;56;1140991;-71
2023/06/30 04:52:33;;;;;;;8.70;4.95;;;;;;;19.02;100.00;100137.08;5191802;55;1143178;-74
2023/06/30 04:57:39;;;;;;;13.50;5.17;;;;;;;19.08;100.00;100133.17;5180326;55;1140886;-73
2023/06/30 05:02:44;;;;;;;8.95;4.72;;;;;;;19.16;100.00;100137.60;5205336;54;1143311;-71
2023/06/30 05:07:50;;;;;;;18.37;6.05;;;;;;;19.21;100.00;100132.02;5185211;55;1140853;-70
2023/06/30 05:12:55;;;;;;;5.97;5.37;;;;;;;19.32;100.00;100128.87;5158993;55;1142827;-71
2023/06/30 05:18:01;;;;;;;7.17;5.55;;;;;;;19.45;100.00;100127.39;5210260;55;1140829;-71
2023/06/30 05:23:07;;;;;;;10.25;4.65;;;;;;;19.54;100.00;100130.34;5175259;55;1140812;-69
2023/06/30 05:28:12;;;;;;;14.73;5.83;;;;;;;19.54;100.00;100133.03;5051899;56;1142853;-71
2023/06/30 05:33:18;;;;;;;6.90;4.10;;;;;;;19.49;100.00;100132.71;5187708;55;1142845;-73
2023/06/30 05:38:23;;;;;;;9.10;5.15;;;;;;;19.51;100.00;100137.42;5128437;55;1140819;-73
2023/06/30 05:43:29;;;;;;;8.10;4.97;;;;;;;19.54;100.00;100144.59;5104040;56;1141353;-73
2023/06/30 05:48:35;;;;;;;6.85;4.30;;;;;;;19.56;100.00;100150.58;5195493;55;1140725;-74
2023/06/30 05:53:40;;;;;;;8.43;4.30;;;;;;;19.59;100.00;100135.45;5160352;55;1141146;-77
2023/06/30 05:58:46;;;;;;;9.68;3.95;;;;;;;19.69;100.00;100137.03;5078538;57;1140773;-70
2023/06/30 06:03:51;;;;;;;12.18;4.67;;;;;;;19.79;100.00;100141.59;5078716;56;1140735;-70
2023/06/30 06:08:57;;;;;;;4.95;4.55;;;;;;;19.89;100.00;100143.45;5097936;56;1143136;-74
2023/06/30 06:14:02;;;;;;;5.12;4.30;;;;;;;19.97;100.00;100146.88;5078220;56;1140891;-71
2023/06/30 06:19:08;;;;;;;8.43;4.40;;;;;;;20.08;100.00;100150.92;5044314;56;1140936;-71
2023/06/30 06:24:18;;;;;;;8.84;4.80;;;;;;;20.13;100.00;100153.05;5191361;55;1140899;-71
2023/06/30 06:29:24;;;;;;;6.87;5.22;;;;;;;20.23;100.00;100149.53;5129222;55;1140711;-71
2023/06/30 06:34:30;;;;;;;5.67;4.28;;;;;;;20.42;100.00;100144.08;5186413;55;1141313;-76
2023/06/30 06:39:35;;;;;;;10.50;6.37;;;;;;;20.59;100.00;100145.48;5108522;56;1140734;-77
2023/06/30 06:44:41;;;;;;;7.53;4.17;;;;;;;20.89;100.00;100129.52;5128725;56;1143437;-70
2023/06/30 06:49:46;;;;;;;4.42;4.03;;;;;;;20.89;100.00;100129.52;5088350;56;1140970;-71
2023/06/30 06:54:52;;;;;;;4.08;3.55;;;;;;;21.11;100.00;100132.13;5059165;55;1141238;-74
2023/06/30 06:59:59;;;;;;;6.28;4.00;;;;;;;21.31;100.00;100129.93;5111919;56;1140677;-75
2023/06/30 07:05:05;;;;;;;3.47;3.10;;;;;;;21.50;100.00;100131.59;5021117;57;1140906;-74
2023/06/30 07:10:12;;;;;;;3.55;3.08;;;;;;;21.62;100.00;100125.44;5100120;55;1140866;-74
2023/06/30 07:15:17;;;;;;;10.68;3.22;;;;;;;21.83;100.00;100122.31;5109143;55;1140888;-74
2023/06/30 07:20:24;;;;;;;3.25;2.95;;;;;;;22.02;100.00;100115.66;5129220;55;1143073;-74
2023/06/30 07:25:29;;;;;;;4.20;2.60;;;;;;;22.21;100.00;100115.92;5077426;56;1141013;-69
2023/06/30 07:30:36;;;;;;;3.60;2.85;;;;;;;22.32;100.00;100115.30;5065436;56;1140993;-76
2023/06/30 07:35:42;;;;;;;4.55;3.50;;;;;;;22.39;100.00;100114.30;5122816;55;1140806;-75
2023/06/30 07:40:47;;;;;;;2.90;2.70;;;;;;;22.52;100.00;100108.09;5109854;55;1140657;-72
2023/06/30 07:45:53;;;;;;;3.42;2.55;;;;;;;22.72;100.00;100104.88;5125079;55;1140885;-76
2023/06/30 07:50:58;;;;;;;3.52;2.50;;;;;;;22.90;100.00;100111.55;5185234;55;1140618;-74
2023/06/30 07:56:04;;;;;;;7.60;2.72;;;;;;;22.93;100.00;100095.75;5099445;56;1141102;-73
2023/06/30 08:01:10;;;;;;;4.35;2.60;;;;;;;22.93;100.00;100086.83;5123330;55;1140882;-75
2023/06/30 08:06:16;;;;;;;5.80;2.83;;;;;;;22.98;100.00;100077.60;5164711;55;1141200;-71
2023/06/30 08:11:22;;;;;;;7.62;2.72;;;;;;;23.16;99.69;100091.27;5184876;55;1140801;-72
2023/06/30 08:16:28;;;;;;;4.95;2.87;;;;;;;23.29;98.90;100089.88;5164215;55;1139185;-71
2023/06/30 08:21:33;;;;;;;10.30;2.40;;;;;;;23.50;100.00;100091.48;5104765;55;1138869;-77
2023/06/30 08:26:39;;;;;;;3.77;2.65;;;;;;;23.83;99.38;100097.58;5098734;56;1143155;-70
2023/06/30 08:31:44;;;;;;;3.45;2.60;;;;;;;24.03;96.50;100094.77;5129749;55;1138825;-76
2023/06/30 08:36:51;;;;;;;2.82;2.52;;;;;;;24.07;92.54;100093.30;5118097;55;1138767;-74
2023/06/30 08:41:57;;;;;;;4.50;2.00;;;;;;;24.00;91.57;100100.60;5099031;55;1138726;-72
2023/06/30 08:47:04;;;;;;;3.55;2.17;;;;;;;23.96;91.43;100102.63;5170140;55;1139010;-73
2023/06/30 08:52:11;;;;;;;3.70;2.62;;;;;;;23.90;91.16;100107.01;5185344;55;1139239;-76
2023/06/30 08:57:17;;;;;;;4.67;3.10;;;;;;;23.85;91.99;100111.70;5157855;56;1138812;-73
2023/06/30 09:02:26;;;;;;;3.08;2.40;;;;;;;23.84;92.78;100118.14;5205410;56;1138882;-74
2023/06/30 09:07:36;;;;;;;2.90;2.55;;;;;;;23.81;92.47;100110.49;5178243;56;1138934;-78
2023/06/30 09:12:46;;;;;;;4.22;2.77;;;;;;;23.68;92.54;100109.73;5095852;56;1139013;-74
2023/06/30 09:17:53;;;;;;;7.53;2.87;;;;;;;23.55;92.75;100120.55;5119161;56;1138785;-73
2023/06/30 09:22:59;;;;;;;4.03;2.70;;;;;;;23.46;93.29;100118.58;5151750;55;1138927;-68
2023/06/30 09:28:14;;;;;;;2.77;2.62;;;;;;;23.43;93.20;100119.83;5183691;55;1138749;-74
2023/06/30 09:33:20;;;;;;;3.40;2.83;;;;;;;23.41;94.14;100122.43;5183562;55;1138708;-75
2023/06/30 09:38:28;;;;;;;7.37;2.72;;;;;;;23.35;94.46;100120.59;5205078;56;1138983;-78
2023/06/30 09:43:34;;;;;;;3.83;2.98;;;;;;;23.32;95.22;100119.66;5141860;56;1139100;-70
2023/06/30 09:48:42;;;;;;;2.50;2.04;;;;;;;23.35;96.20;100123.30;5068099;56;1138935;-73
2023/06/30 09:53:48;;;;;;;5.70;2.87;;;;;;;23.41;95.78;100121.91;5098449;56;1138545;-77
2023/06/30 09:58:58;;;;;;;3.30;3.00;;;;;;;23.48;96.88;100120.03;5078548;56;1138847;-73
2023/06/30 10:04:04;;;;;;;3.55;3.17;;;;;;;23.57;95.25;100110.37;5085564;56;1138856;-73
2023/06/30 10:09:10;;;;;;;2.77;2.58;;;;;;;23.52;93.52;100106.98;5183671;56;1139062;-72
2023/06/30 10:14:19;;;;;;;2.37;2.17;;;;;;;23.46;92.99;100113.19;5163322;55;1138902;-73
2023/06/30 10:19:26;;;;;;;12.35;2.67;;;;;;;23.43;94.58;100101.45;5163983;55;1138938;-75
2023/06/30 10:24:41;;;;;;;2.35;2.15;;;;;;;23.46;94.57;100101.87;5182146;56;1140929;-71
2023/06/30 10:29:42;;;;;;;4.78;2.35;;;;;;;23.44;93.96;100111.22;5024312;57;1138971;-74
2023/06/30 10:34:49;;;;;;;6.72;2.55;;;;;;;23.34;93.51;100103.58;5165042;55;1138809;-73
2023/06/30 10:39:55;;;;;;;4.15;2.60;;;;;;;23.29;94.15;100086.35;5163287;55;1223894;-72
2023/06/30 10:45:00;;;;;;;6.10;2.92;;;;;;;23.29;95.33;100079.08;5097477;56;1139321;-78
2023/06/30 10:50:16;;;;;;;9.97;4.77;;;;;;;23.33;96.22;100074.93;5079093;56;1138963;-78
2023/06/30 10:55:23;;;;;;;9.00;2.93;;;;;;;23.24;96.31;100074.83;4990163;57;1138941;-68
2023/06/30 11:00:31;;;;;;;6.15;2.90;;;;;;;23.24;96.31;100074.83;5185248;55;1138909;-71
2023/06/30 11:05:37;;;;;;;8.35;3.45;;;;;;;23.25;96.63;100086.45;5164212;55;1138707;-71
2023/06/30 11:10:47;;;;;;;4.55;2.92;;;;;;;23.25;97.21;100075.14;5024530;57;1138683;-75
2023/06/30 11:15:56;;;;;;;5.60;2.90;;;;;;;23.29;97.15;100076.39;5178969;55;1257986;-71
2023/06/30 11:21:08;;;;;;;3.75;2.50;;;;;;;23.38;97.55;100080.49;5161086;55;1138909;-70
2023/06/30 11:26:18;;;;;;;2.70;2.50;;;;;;;23.44;96.97;100074.26;5151245;55;1138744;-74
2023/06/30 11:31:24;;;;;;;5.97;2.97;;;;;;;23.58;96.78;100071.02;5079569;56;1139075;-72
2023/06/30 11:36:34;;;;;;;8.45;2.72;;;;;;;23.73;94.96;100067.52;5044818;57;1138817;-73
2023/06/30 11:41:39;;;;;;;6.12;3.17;;;;;;;23.82;94.87;100066.76;5089015;56;1138831;-72
2023/06/30 11:46:45;;;;;;;3.40;2.47;;;;;;;23.87;93.86;100064.73;5025116;57;1138764;-72
2023/06/30 11:51:51;;;;;;;4.05;2.52;;;;;;;23.93;93.88;100065.23;5184773;55;1138960;-70
2023/06/30 11:56:59;;;;;;;3.52;2.95;;;;;;;23.95;92.19;100066.68;5099601;56;1138731;-70
2023/06/30 12:02:06;;;;;;;2.73;2.53;;;;;;;23.93;90.33;100066.59;4994547;56;1139060;-69
2023/06/30 12:07:14;;;;;;;3.55;3.10;;;;;;;23.91;91.42;100057.34;4959920;57;1138910;-69
2023/06/30 12:12:28;;;;;;;6.22;2.75;;;;;;;23.88;91.29;100052.89;5078761;55;1138929;-72
2023/06/30 12:17:43;;;;;;;5.47;3.33;;;;;;;23.78;91.09;100050.67;5020475;56;1138935;-70
2023/06/30 12:22:53;;;;;;;3.90;3.60;;;;;;;23.68;93.78;100054.37;5182624;55;1139103;-73
2023/06/30 12:27:59;;;;;;;8.03;2.95;;;;;;;23.61;94.48;100058.96;5025013;57;1138888;-71
2023/06/30 12:33:06;;;;;;;4.00;3.10;;;;;;;23.66;94.36;100052.41;5164044;55;1138660;-73
2023/06/30 12:38:12;;;;;;;5.95;3.17;;;;;;;23.84;92.98;100049.79;5184148;55;1138978;-70
2023/06/30 12:43:18;;;;;;;4.10;2.85;;;;;;;24.00;91.75;100040.34;5022657;57;1138934;-72
2023/06/30 12:48:24;;;;;;;8.03;3.12;;;;;;;24.23;91.21;100039.29;5164219;56;1139043;-72
2023/06/30 12:53:29;;;;;;;5.62;2.67;;;;;;;24.23;91.06;100040.64;5044798;56;1139215;-73
2023/06/30 12:58:35;;;;;;;3.77;3.40;;;;;;;24.29;91.81;100026.23;5159471;55;1138723;-70
2023/06/30 13:03:41;;;;;;;3.58;3.12;;;;;;;24.36;91.28;100016.73;5108823;56;1138786;-69
2023/06/30 13:08:47;;;;;;;11.22;3.33;;;;;;;24.37;92.16;100012.98;5063109;56;1138820;-69
2023/06/30 13:13:53;;;;;;;10.58;3.40;;;;;;;24.34;91.70;99998.55;5078045;56;1140996;-66
2023/06/30 13:18:58;;;;;;;7.87;3.45;;;;;;;24.25;92.06;99998.53;4943038;58;1138812;-70
2023/06/30 13:24:04;;;;;;;7.97;3.30;;;;;;;24.22;92.67;99994.89;5098437;56;1136586;-67
2023/06/30 13:29:12;;;;;;;4.72;2.58;;;;;;;24.16;91.55;99987.95;5078720;57;1136925;-71
2023/06/30 13:34:18;;;;;;;3.02;2.85;;;;;;;24.26;90.57;99988.86;5078322;56;1136632;-69
2023/06/30 13:39:24;;;;;;;5.23;2.23;;;;;;;24.34;89.26;99972.88;4944008;57;1136721;-70
2023/06/30 13:44:31;;;;;;;5.67;3.95;;;;;;;24.38;86.66;99976.27;5098696;56;1136854;-65
2023/06/30 13:49:37;;;;;;;8.93;3.98;;;;;;;24.23;85.62;99976.27;4957842;57;1136698;-72
2023/06/30 13:54:43;;;;;;;4.60;4.08;;;;;;;24.04;85.44;99966.75;5164052;56;1136707;-66
2023/06/30 13:59:48;;;;;;;6.35;2.67;;;;;;;23.97;87.23;99963.81;5060045;55;1136707;-69
2023/06/30 14:04:54;;;;;;;3.15;2.72;;;;;;;23.89;87.96;99958.66;5116274;55;1136784;-69
2023/06/30 14:09:59;;;;;;;3.12;2.45;;;;;;;23.89;88.67;99943.81;5094234;56;1136662;-68
2023/06/30 14:15:05;;;;;;;6.12;2.75;;;;;;;23.87;88.32;99952.66;5114109;57;1136683;-70
2023/06/30 14:20:12;;;;;;;8.83;4.67;;;;;;;23.81;88.87;99946.27;5094619;57;1136551;-68
2023/06/30 14:25:25;;;;;;;4.53;2.67;;;;;;;23.75;89.45;99945.78;5094327;56;1136682;-70
2023/06/30 14:30:32;;;;;;;8.30;2.52;;;;;;;23.64;88.35;99951.38;5094036;56;1136791;-69
2023/06/30 14:35:37;;;;;;;6.22;3.00;;;;;;;23.49;86.72;99931.39;5114348;56;1137023;-68
2023/06/30 14:40:43;;;;;;;3.52;2.75;;;;;;;23.45;87.28;99923.41;5094487;56;1136586;-70
2023/06/30 14:45:49;;;;;;;11.63;4.25;;;;;;;23.48;87.88;99923.51;5116157;55;1136748;-68
2023/06/30 14:50:54;;;;;;;24.32;18.15;;;;;;;23.52;87.94;99927.47;5205048;55;1138753;-71
2023/06/30 14:56:00;;;;;;;9.28;3.33;;;;;;;23.54;88.29;99923.17;5127680;56;1140980;-68
2023/06/30 15:01:05;;;;;;;4.57;2.97;;;;;;;23.57;87.77;99928.97;4945939;57;1137202;-67
2023/06/30 15:06:11;;;;;;;12.37;5.67;;;;;;;23.53;88.01;99922.34;5098746;56;1136706;-66
2023/06/30 15:11:17;;;;;;;15.10;4.10;;;;;;;23.54;88.63;99934.80;5078882;56;1138740;-66
2023/06/30 15:16:23;;;;;;;6.20;3.62;;;;;;;23.48;88.83;99940.53;5079204;56;1138821;-68
2023/06/30 15:21:29;;;;;;;5.95;3.45;;;;;;;23.43;89.45;99938.99;5098826;56;1136596;-68
2023/06/30 15:26:34;;;;;;;14.90;5.45;;;;;;;23.41;89.67;99937.03;5078956;56;1136912;-68
2023/06/30 15:31:41;;;;;;;14.43;4.20;;;;;;;23.38;90.22;99933.93;5078369;56;1138824;-67
2023/06/30 15:36:47;;;;;;;3.90;3.60;;;;;;;23.33;90.61;99933.77;5098735;56;1138858;-66
2023/06/30 15:41:53;;;;;;;4.45;4.05;;;;;;;23.30;91.11;99929.62;5094649;56;1136879;-68
2023/06/30 15:47:00;;;;;;;12.47;5.97;;;;;;;23.27;91.48;99932.75;5079097;56;1136592;-68
2023/06/30 15:52:06;;;;;;;8.05;4.55;;;;;;;23.23;92.25;99940.96;5098410;56;1138755;-68
2023/06/30 15:57:12;;;;;;;11.20;4.42;;;;;;;23.15;93.05;99947.45;5079392;56;1136805;-74
2023/06/30 16:02:17;;;;;;;9.67;3.03;;;;;;;23.08;93.62;99941.23;5079153;57;1160576;-72
2023/06/30 16:07:23;;;;;;;10.27;4.67;;;;;;;22.86;94.07;99983.04;5079272;56;1136796;-69
2023/06/30 16:12:29;;;;;;;9.03;5.87;;;;;;;22.13;100.00;99979.58;5170462;55;1138830;-70
2023/06/30 16:17:35;;;;;;;10.40;6.05;;;;;;;21.64;100.00;99993.36;5164458;55;1138873;-75
2023/06/30 16:22:40;;;;;;;9.05;6.85;;;;;;;21.45;100.00;99990.09;5164658;55;1140742;-69
2023/06/30 16:27:46;;;;;;;8.58;7.20;;;;;;;21.26;100.00;100004.60;5184472;55;1138784;-70
2023/06/30 16:32:53;;;;;;;11.50;8.58;;;;;;;21.20;100.00;100012.66;5163779;55;1140840;-74
2023/06/30 16:38:01;;;;;;;19.80;9.48;;;;;;;21.14;100.00;100008.03;5154143;56;1142964;-70
2023/06/30 16:43:06;;;;;;;16.35;8.85;;;;;;;21.08;100.00;100007.52;5168733;55;1143425;-69
2023/06/30 16:48:12;;;;;;;15.58;8.65;;;;;;;20.94;100.00;99998.52;5163939;56;1143235;-70
2023/06/30 16:53:18;;;;;;;11.73;8.28;;;;;;;20.97;100.00;99994.92;5145977;55;1140971;-75
2023/06/30 16:58:25;;;;;;;12.10;8.13;;;;;;;21.03;100.00;99986.59;5078874;56;1141166;-72
2023/06/30 17:03:30;;;;;;;17.52;7.97;;;;;;;20.92;100.00;99969.69;5098664;56;1140864;-73
2023/06/30 17:08:36;;;;;;;11.83;8.38;;;;;;;20.98;100.00;99956.26;5078141;56;1140662;-73
2023/06/30 17:13:41;;;;;;;13.90;8.98;;;;;;;21.05;100.00;99942.86;5077961;56;1140682;-69
2023/06/30 17:18:47;;;;;;;10.35;9.08;;;;;;;20.99;100.00;99973.22;5098683;57;1141118;-73
2023/06/30 17:23:53;;;;;;;13.13;8.80;;;;;;;20.89;100.00;99962.84;5078305;57;1141073;-70
2023/06/30 17:28:58;;;;;;;17.95;8.83;;;;;;;20.90;100.00;99955.09;5077361;56;1140846;-75
2023/06/30 17:34:04;;;;;;;10.53;7.47;;;;;;;20.93;100.00;99947.95;5044072;56;1141153;-69
2023/06/30 17:39:10;;;;;;;10.23;6.60;;;;;;;21.08;100.00;99951.33;4939915;58;1141256;-75
2023/06/30 17:44:15;;;;;;;7.60;6.80;;;;;;;21.01;100.00;99955.03;4939715;57;1141028;-74
2023/06/30 17:49:30;;;;;;;6.92;6.25;;;;;;;21.15;100.00;99956.75;4940347;57;1139000;-74
2023/06/30 17:54:36;;;;;;;7.65;6.25;;;;;;;21.19;100.00;99959.87;4998996;56;1138803;-71
2023/06/30 17:59:42;;;;;;;10.08;6.28;;;;;;;21.12;100.00;99959.83;5078090;56;1138973;-72
2023/06/30 18:04:48;;;;;;;9.90;7.10;;;;;;;21.16;100.00;99940.09;5005715;56;1140870;-70
2023/06/30 18:09:54;;;;;;;9.10;7.45;;;;;;;21.20;100.00;99948.95;5126623;56;1139016;-72
2023/06/30 18:15:00;;;;;;;10.65;7.90;;;;;;;21.21;100.00;99931.78;5020165;57;1138711;-72
2023/06/30 18:20:06;;;;;;;9.98;7.22;;;;;;;21.25;100.00;99940.25;5108319;56;1140889;-74
2023/06/30 18:25:12;;;;;;;9.95;6.60;;;;;;;21.12;100.00;99954.45;5038511;57;1138999;-73
2023/06/30 18:30:18;;;;;;;22.50;12.58;;;;;;;20.99;100.00;99957.09;5054305;56;1139085;-70
2023/06/30 18:35:23;;;;;;;9.78;6.87;;;;;;;20.84;100.00;99967.14;5093117;56;1143274;-70
2023/06/30 18:40:29;;;;;;;9.88;6.87;;;;;;;20.73;100.00;99967.71;5113795;56;1138746;-73
2023/06/30 18:45:35;;;;;;;8.58;5.90;;;;;;;20.57;100.00;99971.55;5094080;56;1138790;-74
2023/06/30 18:50:41;;;;;;;10.50;6.28;;;;;;;20.52;100.00;99969.95;5094632;55;1138816;-71
2023/06/30 18:55:46;;;;;;;7.05;5.70;;;;;;;20.42;100.00;99984.25;5124773;56;1140947;-73
2023/06/30 19:00:52;;;;;;;8.20;5.95;;;;;;;20.42;100.00;99984.25;4977360;57;1138899;-72
2023/06/30 19:06:01;;;;;;;8.63;6.87;;;;;;;20.39;100.00;99992.19;5099207;56;1138862;-71
2023/06/30 19:11:06;;;;;;;8.30;6.65;;;;;;;20.26;100.00;99994.23;5099957;55;1138848;-71
2023/06/30 19:16:12;;;;;;;9.78;6.15;;;;;;;20.09;100.00;100006.77;5079948;55;1138817;-73
2023/06/30 19:21:18;;;;;;;15.93;7.08;;;;;;;20.05;100.00;100010.86;5078695;56;1140755;-69
2023/06/30 19:26:24;;;;;;;8.08;6.08;;;;;;;20.00;100.00;100023.02;5078602;56;1142873;-72
2023/06/30 19:31:29;;;;;;;15.15;7.00;;;;;;;19.99;100.00;100029.41;5098531;57;1140791;-74
2023/06/30 19:36:36;;;;;;;70.22;30.00;;;;;;;19.97;100.00;100033.31;5078595;56;1143111;-72
2023/06/30 19:41:42;;;;;;;27.02;13.78;;;;;;;19.97;100.00;100040.85;5078226;56;1145136;-73
2023/06/30 19:46:47;;;;;;;10.65;8.33;;;;;;;20.09;100.00;100049.22;5098570;56;1144940;-73
2023/06/30 19:51:53;;;;;;;10.55;6.92;;;;;;;20.19;100.00;100047.54;5078392;56;1142855;-70
2023/06/30 19:56:58;;;;;;;10.18;6.72;;;;;;;20.17;100.00;100036.16;5078738;56;1142833;-70
2023/06/30 20:02:04;;;;;;;9.80;5.85;;;;;;;20.14;100.00;100042.77;5098790;56;1143468;-72
2023/06/30 20:07:09;;;;;;;9.43;6.37;;;;;;;20.14;100.00;100042.77;5078831;56;1141119;-69
2023/06/30 20:12:15;;;;;;;8.03;5.83;;;;;;;20.21;100.00;100041.47;5094300;56;1141198;-72
2023/06/30 20:17:20;;;;;;;6.08;5.08;;;;;;;20.26;100.00;100039.88;5096855;56;1140803;-71
2023/06/30 20:22:32;;;;;;;8.35;4.80;;;;;;;20.20;100.00;100050.55;5116535;56;1140925;-71
2023/06/30 20:27:34;;;;;;;6.17;5.12;;;;;;;20.13;100.00;100045.64;5098159;56;1140999;-70
2023/06/30 20:32:39;;;;;;;9.98;5.42;;;;;;;20.01;100.00;100046.13;5098350;56;1140666;-71
2023/06/30 20:37:45;;;;;;;7.58;5.15;;;;;;;19.91;100.00;100036.23;5118001;55;1140878;-75
2023/06/30 20:42:51;;;;;;;7.75;4.92;;;;;;;19.81;100.00;100036.23;5098179;56;1140969;-72
2023/06/30 20:47:56;;;;;;;7.42;5.03;;;;;;;19.73;100.00;100029.12;5098497;56;1141062;-72
2023/06/30 20:53:02;;;;;;;6.33;5.60;;;;;;;19.68;100.00;100034.25;5132794;55;1140773;-73
2023/06/30 20:58:07;;;;;;;6.35;5.50;;;;;;;19.71;100.00;100031.70;5164151;55;1140972;-76
2023/06/30 21:03:13;;;;;;;15.50;5.33;;;;;;;19.89;100.00;100015.46;4961626;58;1140827;-69
2023/06/30 21:08:18;;;;;;;9.53;6.47;;;;;;;19.96;100.00;99998.92;5044006;57;1142901;-73
2023/06/30 21:13:24;;;;;;;8.90;6.33;;;;;;;19.99;100.00;99989.66;5098157;57;1138766;-72
2023/06/30 21:18:29;;;;;;;6.72;5.35;;;;;;;20.00;100.00;99997.52;5141068;55;1138625;-73
2023/06/30 21:23:35;;;;;;;7.50;5.37;;;;;;;19.96;100.00;100002.12;4962441;58;1138946;-69
2023/06/30 21:28:41;;;;;;;6.65;5.60;;;;;;;19.96;100.00;99996.23;5118520;56;1140727;-76
2023/06/30 21:33:48;;;;;;;7.75;6.03;;;;;;;20.00;100.00;100001.55;5097244;56;1138688;-71
2023/06/30 21:38:53;;;;;;;6.97;5.40;;;;;;;19.91;100.00;100010.73;5098392;56;1140860;-73
2023/06/30 21:43:59;;;;;;;8.60;6.47;;;;;;;19.71;100.00;100012.92;5117991;56;1140746;-73
2023/06/30 21:49:05;;;;;;;10.28;6.32;;;;;;;19.50;100.00;100007.83;5095549;56;1141249;-72
2023/06/30 21:54:11;;;;;;;8.58;6.20;;;;;;;19.46;100.00;100007.02;5051668;55;1143039;-74
2023/06/30 21:59:17;;;;;;;10.13;6.10;;;;;;;19.47;100.00;99994.77;5145101;56;1141027;-69
2023/06/30 22:04:22;;;;;;;12.90;7.00;;;;;;;19.42;100.00;100014.60;5182206;56;1141085;-72
2023/06/30 22:09:28;;;;;;;10.83;7.43;;;;;;;19.31;100.00;100014.59;5184767;55;1143105;-73
2023/06/30 22:14:35;;;;;;;17.55;9.20;;;;;;;19.24;100.00;100003.47;5204802;56;1142962;-73
2023/06/30 22:19:41;;;;;;;8.98;7.37;;;;;;;19.28;100.00;100004.73;5100876;56;1143187;-70
2023/06/30 22:24:47;;;;;;;7.20;6.47;;;;;;;19.32;100.00;99988.09;5098519;56;1141183;-73
2023/06/30 22:29:52;;;;;;;13.95;6.80;;;;;;;19.36;100.00;99999.28;5118790;56;1138964;-72
2023/06/30 22:34:58;;;;;;;9.88;6.97;;;;;;;19.31;100.00;99991.80;5098307;56;1140979;-71
2023/06/30 22:40:03;;;;;;;12.50;8.00;;;;;;;19.23;100.00;99998.63;5098476;56;1138980;-70
2023/06/30 22:45:10;;;;;;;11.97;8.63;;;;;;;19.20;100.00;99999.50;5118295;56;1140862;-76
2023/06/30 22:50:15;;;;;;;9.33;7.53;;;;;;;19.16;100.00;99992.84;5098846;56;1140947;-73
2023/06/30 22:55:21;;;;;;;7.60;6.80;;;;;;;19.20;100.00;99988.77;5105262;56;1138661;-71
2023/06/30 23:00:27;;;;;;;11.33;6.20;;;;;;;19.13;100.00;99991.36;5021166;57;1138937;-71